createdAt,value
2019-04-13T00:00:32.957Z,2.80
2019-04-13T00:03:05.155Z,2.70
2019-04-13T00:05:46.393Z,2.70
2019-04-13T00:08:19.333Z,2.70
2019-04-13T00:10:52.298Z,2.60
2019-04-13T00:13:22.590Z,2.60
2019-04-13T00:15:50.970Z,2.60
2019-04-13T00:18:19.368Z,2.60
2019-04-13T00:20:47.784Z,2.60
2019-04-13T00:23:19.165Z,2.60
2019-04-13T00:25:49.191Z,2.60
2019-04-13T00:28:25.533Z,2.60
2019-04-13T00:30:55.565Z,2.50
2019-04-13T00:33:28.538Z,2.50
2019-04-13T00:35:57.158Z,2.40
2019-04-13T00:38:32.867Z,2.40
2019-04-13T00:41:07.254Z,2.40
2019-04-13T00:43:38.611Z,2.40
2019-04-13T00:46:07.004Z,2.40
2019-04-13T00:48:35.404Z,2.40
2019-04-13T00:51:06.508Z,2.30
2019-04-13T00:53:34.900Z,2.30
2019-04-13T00:56:03.751Z,2.30
2019-04-13T00:58:37.870Z,2.30
2019-04-13T01:01:06.271Z,2.30
2019-04-13T01:03:34.894Z,2.30
2019-04-13T01:06:03.795Z,2.20
2019-04-13T01:08:32.176Z,2.30
2019-04-13T01:11:03.304Z,2.20
2019-04-13T01:13:32.553Z,2.20
2019-04-13T01:16:01.112Z,2.30
2019-04-13T01:18:34.154Z,2.30
2019-04-13T01:21:06.188Z,2.30
2019-04-13T01:23:34.809Z,2.30
2019-04-13T01:26:04.216Z,2.20
2019-04-13T01:28:34.220Z,2.20
2019-04-13T01:31:06.006Z,2.20
2019-04-13T01:33:44.805Z,2.20
2019-04-13T01:36:10.316Z,2.20
2019-04-13T01:38:40.355Z,2.20
2019-04-13T01:41:09.400Z,2.20
2019-04-13T01:43:40.700Z,2.20
2019-04-13T01:46:09.348Z,2.10
2019-04-13T01:48:37.732Z,2.10
2019-04-13T01:51:06.133Z,2.10
2019-04-13T01:53:36.155Z,2.10
2019-04-13T01:56:11.350Z,2.10
2019-04-13T01:58:42.688Z,2.10
2019-04-13T02:01:27.693Z,2.10
2019-04-13T02:03:57.712Z,2.10
2019-04-13T02:06:28.867Z,2.00
2019-04-13T02:09:11.196Z,2.00
2019-04-13T02:11:40.189Z,2.00
2019-04-13T02:14:11.247Z,2.10
2019-04-13T02:16:43.934Z,2.10
2019-04-13T02:19:10.001Z,2.00
2019-04-13T02:21:38.390Z,2.00
2019-04-13T02:24:06.786Z,2.00
2019-04-13T02:26:37.858Z,2.00
2019-04-13T02:29:06.363Z,2.00
2019-04-13T02:31:37.760Z,2.00
2019-04-13T02:34:08.970Z,2.00
2019-04-13T02:36:37.367Z,2.00
2019-04-13T02:39:10.066Z,2.00
2019-04-13T02:41:44.381Z,1.90
2019-04-13T02:44:12.769Z,1.90
2019-04-13T02:46:43.933Z,2.00
2019-04-13T02:49:12.323Z,2.00
2019-04-13T02:51:42.439Z,1.90
2019-04-13T02:54:13.253Z,1.90
2019-04-13T02:56:41.886Z,1.90
2019-04-13T02:59:10.501Z,1.90
2019-04-13T03:01:40.531Z,1.90
2019-04-13T03:04:11.637Z,1.90
2019-04-13T03:06:41.811Z,1.90
2019-04-13T03:09:10.197Z,1.90
2019-04-13T03:11:38.592Z,1.80
2019-04-13T03:14:08.691Z,1.80
2019-04-13T03:16:50.781Z,1.90
2019-04-13T03:19:33.103Z,1.80
2019-04-13T03:22:01.743Z,1.80
2019-04-13T03:24:33.177Z,1.80
2019-04-13T03:27:07.695Z,1.80
2019-04-13T03:29:36.085Z,1.80
2019-04-13T03:32:04.490Z,1.80
2019-04-13T03:34:38.821Z,1.80
2019-04-13T03:37:10.213Z,1.80
2019-04-13T03:39:38.603Z,1.90
2019-04-13T03:42:07.235Z,1.90
2019-04-13T03:44:37.289Z,1.90
2019-04-13T03:47:08.505Z,1.80
2019-04-13T03:49:36.945Z,1.80
2019-04-13T03:52:06.241Z,1.80
2019-04-13T03:54:38.573Z,1.80
2019-04-13T03:57:06.989Z,1.90
2019-04-13T03:59:35.364Z,1.90
2019-04-13T04:02:09.308Z,1.90
2019-04-13T04:04:37.693Z,1.80
2019-04-13T04:07:09.049Z,1.80
2019-04-13T04:09:40.665Z,1.80
2019-04-13T04:12:10.170Z,1.80
2019-04-13T04:14:39.230Z,1.80
2019-04-13T04:17:10.300Z,1.80
2019-04-13T04:19:38.686Z,1.80
2019-04-13T04:22:09.776Z,1.70
2019-04-13T04:24:40.989Z,1.70
2019-04-13T04:27:12.332Z,1.70
2019-04-13T04:29:40.984Z,1.80
2019-04-13T04:32:12.408Z,1.70
2019-04-13T04:34:43.474Z,1.80
2019-04-13T04:37:11.873Z,1.70
2019-04-13T04:39:40.257Z,1.70
2019-04-13T04:42:16.071Z,1.70
2019-04-13T04:44:44.463Z,1.70
2019-04-13T04:47:13.105Z,1.70
2019-04-13T04:49:44.245Z,1.80
2019-04-13T04:52:12.629Z,1.80
2019-04-13T04:54:45.356Z,1.80
2019-04-13T04:57:15.029Z,1.70
2019-04-13T04:59:45.097Z,1.80
2019-04-13T05:02:13.481Z,1.80
2019-04-13T05:04:48.449Z,1.80
2019-04-13T05:07:16.833Z,1.90
2019-04-13T05:09:45.624Z,1.80
2019-04-13T05:12:14.013Z,1.90
2019-04-13T05:14:45.090Z,1.90
2019-04-13T05:17:13.483Z,1.90
2019-04-13T05:19:44.589Z,2.00
2019-04-13T05:22:25.390Z,1.90
2019-04-13T05:24:49.258Z,2.00
2019-04-13T05:27:20.565Z,2.00
2019-04-13T05:29:53.550Z,2.10
2019-04-13T05:32:20.970Z,2.10
2019-04-13T05:34:49.385Z,2.10
2019-04-13T05:37:17.781Z,2.10
2019-04-13T05:39:48.618Z,2.20
2019-04-13T05:42:17.132Z,2.20
2019-04-13T05:44:48.981Z,2.30
2019-04-13T05:47:17.381Z,2.30
2019-04-13T05:49:48.901Z,2.40
2019-04-13T05:52:19.074Z,2.50
2019-04-13T05:54:50.484Z,2.70
2019-04-13T05:57:21.783Z,2.70
2019-04-13T05:59:55.788Z,2.70
2019-04-13T06:02:27.193Z,2.80
2019-04-13T06:05:04.547Z,2.90
2019-04-13T06:07:35.610Z,3.00
2019-04-13T06:10:07.923Z,3.10
2019-04-13T06:12:38.965Z,3.20
2019-04-13T06:15:12.245Z,3.20
2019-04-13T06:17:43.622Z,3.30
2019-04-13T06:20:15.318Z,3.40
2019-04-13T06:22:46.882Z,3.50
2019-04-13T06:25:15.796Z,3.50
2019-04-13T06:27:45.285Z,3.60
2019-04-13T06:30:32.593Z,3.70
2019-04-13T06:33:05.672Z,3.90
2019-04-13T06:35:34.601Z,3.90
2019-04-13T06:38:10.396Z,4.10
2019-04-13T06:40:51.635Z,4.10
2019-04-13T06:43:20.394Z,4.10
2019-04-13T06:45:51.757Z,4.10
2019-04-13T06:48:24.292Z,4.00
2019-04-13T06:50:58.350Z,3.90
2019-04-13T06:53:27.253Z,3.90
2019-04-13T06:55:59.033Z,3.90
2019-04-13T06:58:27.427Z,3.90
2019-04-13T07:00:55.817Z,4.00
2019-04-13T07:03:29.800Z,4.10
2019-04-13T07:06:00.001Z,4.00
2019-04-13T07:08:38.553Z,4.10
2019-04-13T07:11:24.096Z,4.20
2019-04-13T07:14:01.612Z,4.30
2019-04-13T07:16:31.644Z,4.40
2019-04-13T07:19:07.414Z,4.60
2019-04-13T07:21:37.966Z,4.50
2019-04-13T07:24:10.362Z,4.70
2019-04-13T07:26:40.386Z,4.80
2019-04-13T07:29:11.843Z,5.00
2019-04-13T07:31:40.233Z,5.10
2019-04-13T07:34:12.959Z,5.20
2019-04-13T07:36:50.676Z,5.20
2019-04-13T07:39:19.769Z,5.30
2019-04-13T07:41:48.189Z,5.60
2019-04-13T07:44:18.485Z,5.60
2019-04-13T07:46:52.864Z,5.50
2019-04-13T07:49:22.889Z,5.80
2019-04-13T07:52:10.831Z,5.80
2019-04-13T07:54:39.454Z,6.20
2019-04-13T07:57:10.644Z,6.10
2019-04-13T07:59:41.945Z,6.20
2019-04-13T08:02:10.404Z,6.40
2019-04-13T08:04:38.805Z,6.40
2019-04-13T08:07:09.832Z,6.40
2019-04-13T08:09:42.201Z,6.70
2019-04-13T08:12:12.236Z,6.40
2019-04-13T08:14:40.633Z,6.30
2019-04-13T08:17:11.997Z,6.30
2019-04-13T08:19:42.050Z,6.10
2019-04-13T08:22:12.073Z,6.20
2019-04-13T08:24:42.109Z,6.20
2019-04-13T08:27:13.333Z,6.70
2019-04-13T08:29:44.588Z,7.00
2019-04-13T08:32:14.508Z,7.10
2019-04-13T08:34:51.888Z,7.00
2019-04-13T08:37:24.859Z,7.20
2019-04-13T08:40:02.316Z,7.30
2019-04-13T08:42:27.086Z,7.30
2019-04-13T08:44:55.154Z,7.50
2019-04-13T08:47:23.553Z,7.70
2019-04-13T08:49:54.890Z,8.00
2019-04-13T08:52:23.289Z,8.10
2019-04-13T08:54:56.229Z,7.90
2019-04-13T08:57:27.498Z,8.30
2019-04-13T08:59:57.529Z,8.40
2019-04-13T09:02:25.996Z,8.90
2019-04-13T09:04:57.263Z,9.00
2019-04-13T09:07:30.501Z,9.20
2019-04-13T09:09:58.885Z,9.40
2019-04-13T09:12:30.418Z,9.50
2019-04-13T09:15:01.207Z,9.60
2019-04-13T09:17:34.534Z,9.30
2019-04-13T09:20:20.603Z,9.30
2019-04-13T09:23:06.755Z,9.30
2019-04-13T09:25:59.082Z,9.10
2019-04-13T09:28:26.849Z,8.90
2019-04-13T09:30:57.935Z,9.00
2019-04-13T09:33:32.446Z,9.40
2019-04-13T09:36:04.627Z,9.60
2019-04-13T09:38:42.125Z,10.30
2019-04-13T09:41:06.172Z,10.90
2019-04-13T09:43:44.720Z,11.30
2019-04-13T09:46:13.123Z,11.90
2019-04-13T09:48:48.671Z,11.90
2019-04-13T09:51:16.094Z,11.30
2019-04-13T09:53:48.943Z,10.80
2019-04-13T09:56:18.224Z,10.30
2019-04-13T09:58:52.582Z,10.10
2019-04-13T10:01:22.618Z,9.80
2019-04-13T10:03:56.393Z,9.60
2019-04-13T10:06:24.788Z,9.20
2019-04-13T10:08:57.875Z,9.70
2019-04-13T10:11:33.729Z,10.20
2019-04-13T10:14:09.710Z,10.60
2019-04-13T10:16:59.100Z,10.50
2019-04-13T10:19:31.383Z,10.80
2019-04-13T10:21:57.629Z,10.60
2019-04-13T10:24:41.357Z,10.30
2019-04-13T10:27:12.922Z,9.90
2019-04-13T10:29:42.952Z,9.70
2019-04-13T10:32:14.315Z,9.50
2019-04-13T10:34:48.403Z,9.60
2019-04-13T10:37:16.789Z,9.70
2019-04-13T10:39:48.253Z,9.90
2019-04-13T10:42:16.644Z,10.50
2019-04-13T10:44:46.682Z,10.60
2019-04-13T10:47:34.361Z,10.40
2019-04-13T10:50:07.490Z,10.20
2019-04-13T10:52:35.548Z,10.30
2019-04-13T10:55:09.801Z,10.70
2019-04-13T10:57:38.189Z,11.00
2019-04-13T11:00:19.302Z,11.00
2019-04-13T11:02:44.745Z,10.80
2019-04-13T11:05:13.457Z,10.90
2019-04-13T11:07:48.992Z,10.60
2019-04-13T11:10:17.966Z,10.40
2019-04-13T11:12:46.355Z,10.40
2019-04-13T11:15:16.726Z,10.60
2019-04-13T11:17:45.285Z,10.70
2019-04-13T11:20:15.462Z,10.30
2019-04-13T11:22:47.601Z,10.30
2019-04-13T11:25:21.473Z,10.70
2019-04-13T11:27:52.484Z,10.80
2019-04-13T11:30:20.877Z,10.90
2019-04-13T11:32:49.837Z,11.00
2019-04-13T11:35:18.241Z,11.00
2019-04-13T11:37:46.695Z,11.40
2019-04-13T11:40:17.224Z,11.20
2019-04-13T11:43:09.825Z,10.80
2019-04-13T11:45:42.553Z,10.70
2019-04-13T11:48:12.638Z,11.50
2019-04-13T11:50:42.904Z,11.90
2019-04-13T11:53:14.265Z,12.30
2019-04-13T11:55:45.657Z,12.80
2019-04-13T11:58:14.047Z,12.90
2019-04-13T12:00:44.090Z,12.70
2019-04-13T12:03:28.870Z,12.30
2019-04-13T12:06:17.945Z,11.70
2019-04-13T12:08:48.007Z,10.90
2019-04-13T12:11:40.129Z,10.00
2019-04-13T12:14:31.942Z,10.00
2019-04-13T12:17:08.573Z,10.00
2019-04-13T12:19:47.427Z,10.10
2019-04-13T12:22:29.644Z,9.90
2019-04-13T12:25:00.991Z,9.80
2019-04-13T12:27:31.327Z,9.60
2019-04-13T12:30:10.381Z,9.60
2019-04-13T12:32:39.753Z,9.60
2019-04-13T12:35:14.521Z,10.70
2019-04-13T12:37:45.610Z,11.80
2019-04-13T12:40:27.859Z,12.60
2019-04-13T12:42:58.569Z,12.30
2019-04-13T12:45:28.613Z,12.20
2019-04-13T12:47:57.489Z,12.10
2019-04-13T12:50:26.135Z,11.20
2019-04-13T12:52:54.527Z,10.30
2019-04-13T12:55:25.556Z,9.40
2019-04-13T12:57:55.894Z,9.00
2019-04-13T13:00:41.866Z,8.80
2019-04-13T13:03:15.877Z,8.90
2019-04-13T13:05:54.641Z,8.80
2019-04-13T13:08:23.032Z,8.50
2019-04-13T13:10:54.365Z,8.50
2019-04-13T13:13:22.757Z,8.60
2019-04-13T13:16:00.452Z,8.60
2019-04-13T13:18:30.955Z,8.80
2019-04-13T13:21:02.069Z,9.20
2019-04-13T13:23:33.116Z,9.30
2019-04-13T13:26:01.520Z,9.20
2019-04-13T13:28:30.890Z,9.00
2019-04-13T13:31:01.509Z,9.00
2019-04-13T13:33:32.887Z,9.30
2019-04-13T13:36:04.213Z,9.80
2019-04-13T13:38:33.265Z,10.50
2019-04-13T13:41:05.596Z,11.10
2019-04-13T13:43:43.120Z,11.30
2019-04-13T13:46:11.562Z,11.10
2019-04-13T13:48:42.285Z,11.30
2019-04-13T13:51:13.944Z,11.60
2019-04-13T13:53:45.030Z,12.10
2019-04-13T13:56:13.425Z,12.40
2019-04-13T13:58:47.237Z,12.80
2019-04-13T14:01:34.398Z,13.30
2019-04-13T14:04:04.476Z,13.70
2019-04-13T14:06:32.873Z,13.60
2019-04-13T14:09:01.290Z,13.40
2019-04-13T14:11:34.029Z,12.90
2019-04-13T14:14:02.467Z,12.50
2019-04-13T14:16:38.497Z,13.30
2019-04-13T14:19:07.561Z,13.30
2019-04-13T14:21:40.533Z,13.20
2019-04-13T14:24:11.893Z,12.70
2019-04-13T14:26:51.070Z,12.00
2019-04-13T14:29:20.339Z,11.80
2019-04-13T14:31:48.739Z,11.60
2019-04-13T14:34:17.873Z,11.40
2019-04-13T14:36:46.269Z,11.10
2019-04-13T14:39:18.930Z,10.80
2019-04-13T14:41:53.232Z,10.30
2019-04-13T14:44:21.650Z,10.10
2019-04-13T14:46:50.697Z,9.80
2019-04-13T14:49:20.431Z,9.60
2019-04-13T14:51:52.396Z,9.70
2019-04-13T14:54:26.150Z,9.90
2019-04-13T14:56:54.580Z,9.70
2019-04-13T14:59:22.989Z,9.00
2019-04-13T15:01:53.056Z,8.80
2019-04-13T15:04:23.126Z,8.70
2019-04-13T15:06:54.948Z,8.90
2019-04-13T15:09:24.597Z,8.90
2019-04-13T15:11:52.994Z,9.10
2019-04-13T15:14:25.775Z,9.20
2019-04-13T15:16:58.544Z,9.40
2019-04-13T15:19:38.220Z,9.50
2019-04-13T15:21:59.455Z,9.40
2019-04-13T15:24:28.522Z,9.40
2019-04-13T15:27:16.858Z,9.60
2019-04-13T15:29:45.677Z,10.00
2019-04-13T15:32:24.266Z,10.40
2019-04-13T15:34:51.219Z,10.50
2019-04-13T15:37:21.155Z,10.80
2019-04-13T15:39:56.285Z,11.60
2019-04-13T15:42:37.070Z,12.00
2019-04-13T15:45:07.723Z,12.10
2019-04-13T15:47:39.028Z,11.50
2019-04-13T15:50:07.535Z,11.40
2019-04-13T15:52:39.145Z,11.40
2019-04-13T15:55:12.230Z,11.30
2019-04-13T15:57:41.249Z,11.50
2019-04-13T16:00:11.067Z,11.60
2019-04-13T16:02:42.696Z,11.40
2019-04-13T16:05:14.204Z,10.60
2019-04-13T16:07:42.972Z,10.00
2019-04-13T16:10:30.785Z,9.50
2019-04-13T16:13:04.737Z,9.00
2019-04-13T16:15:45.849Z,8.50
2019-04-13T16:18:15.381Z,7.90
2019-04-13T16:20:46.429Z,7.70
2019-04-13T16:23:17.432Z,7.60
2019-04-13T16:25:50.971Z,7.40
2019-04-13T16:28:41.525Z,7.30
2019-04-13T16:31:15.988Z,7.10
2019-04-13T16:33:50.961Z,6.90
2019-04-13T16:36:31.186Z,6.70
2019-04-13T16:39:11.808Z,6.60
2019-04-13T16:41:35.885Z,6.60
2019-04-13T16:44:13.129Z,6.60
2019-04-13T16:46:49.406Z,6.70
2019-04-13T16:49:36.361Z,6.70
2019-04-13T16:52:27.913Z,6.80
2019-04-13T16:55:14.744Z,6.80
2019-04-13T16:57:54.534Z,6.80
2019-04-13T17:00:56.097Z,6.80
2019-04-13T17:03:29.646Z,6.80
2019-04-13T17:06:00.428Z,6.90
2019-04-13T17:08:30.507Z,6.90
2019-04-13T17:11:01.107Z,6.90
2019-04-13T17:13:30.523Z,6.80
2019-04-13T17:16:02.667Z,6.70
2019-04-13T17:18:48.328Z,6.70
2019-04-13T17:21:24.893Z,6.60
2019-04-13T17:24:07.360Z,6.60
2019-04-13T17:27:03.457Z,6.50
2019-04-13T17:29:39.445Z,6.50
2019-04-13T17:32:16.304Z,6.50
2019-04-13T17:35:04.726Z,6.40
2019-04-13T17:37:34.159Z,6.30
2019-04-13T17:40:06.191Z,6.20
2019-04-13T17:42:55.441Z,6.10
2019-04-13T17:45:33.910Z,6.00
2019-04-13T17:48:08.208Z,5.90
2019-04-13T17:50:56.185Z,5.90
2019-04-13T17:53:30.742Z,5.70
2019-04-13T17:56:04.878Z,5.60
2019-04-13T17:58:39.719Z,5.60
2019-04-13T18:01:21.630Z,5.60
2019-04-13T18:04:08.228Z,5.50
2019-04-13T18:06:54.665Z,5.50
2019-04-13T18:09:41.544Z,5.40
2019-04-13T18:12:18.510Z,5.40
2019-04-13T18:15:07.501Z,5.40
2019-04-13T18:17:40.948Z,5.40
2019-04-13T18:20:13.512Z,5.30
2019-04-13T18:22:46.766Z,5.30
2019-04-13T18:25:32.319Z,5.20
2019-04-13T18:27:50.523Z,5.20
2019-04-13T18:30:31.156Z,5.20
2019-04-13T18:32:55.392Z,5.20
2019-04-13T18:35:31.179Z,5.20
2019-04-13T18:38:03.908Z,5.20
2019-04-13T18:40:34.373Z,5.20
2019-04-13T18:43:11.662Z,5.20
2019-04-13T18:45:33.460Z,5.20
2019-04-13T18:48:02.275Z,5.10
2019-04-13T18:50:31.244Z,5.00
2019-04-13T18:53:00.500Z,5.00
2019-04-13T18:55:31.649Z,4.90
2019-04-13T18:58:03.354Z,4.80
2019-04-13T19:00:32.330Z,4.70
2019-04-13T19:03:03.425Z,4.60
2019-04-13T19:05:35.027Z,4.50
2019-04-13T19:08:05.076Z,4.50
2019-04-13T19:10:33.556Z,4.40
2019-04-13T19:13:07.436Z,4.40
2019-04-13T19:15:32.705Z,4.30
2019-04-13T19:18:01.136Z,4.30
2019-04-13T19:20:29.533Z,4.20
2019-04-13T19:23:02.429Z,4.20
2019-04-13T19:25:33.222Z,4.10
2019-04-13T19:28:03.260Z,4.10
2019-04-13T19:30:33.444Z,4.10
2019-04-13T19:33:03.439Z,4.10
2019-04-13T19:35:33.712Z,4.10
2019-04-13T19:38:06.325Z,4.10
2019-04-13T19:40:34.706Z,4.00
2019-04-13T19:43:15.866Z,4.00
2019-04-13T19:45:43.634Z,4.00
2019-04-13T19:48:12.275Z,4.00
2019-04-13T19:50:40.670Z,4.00
2019-04-13T19:53:33.504Z,3.90
2019-04-13T19:56:03.785Z,3.90
2019-04-13T19:58:34.915Z,3.90
2019-04-13T20:01:04.937Z,3.90
2019-04-13T20:03:36.318Z,3.90
2019-04-13T20:06:18.111Z,3.80
2019-04-13T20:08:37.223Z,3.80
2019-04-13T20:11:05.605Z,3.90
2019-04-13T20:13:47.922Z,3.90
2019-04-13T20:16:08.633Z,3.80
2019-04-13T20:18:42.798Z,3.90
2019-04-13T20:21:12.868Z,3.90
2019-04-13T20:23:41.371Z,3.90
2019-04-13T20:26:14.482Z,3.90
2019-04-13T20:28:43.971Z,3.90
2019-04-13T20:31:16.237Z,3.80
2019-04-13T20:33:48.918Z,3.90
2019-04-13T20:36:21.459Z,3.80
2019-04-13T20:38:52.251Z,3.80
2019-04-13T20:41:38.604Z,3.70
2019-04-13T20:44:04.681Z,3.70
2019-04-13T20:46:28.371Z,3.70
2019-04-13T20:48:58.293Z,3.60
2019-04-13T20:51:27.522Z,3.60
2019-04-13T20:54:03.084Z,3.50
2019-04-13T20:56:31.848Z,3.40
2019-04-13T20:59:01.826Z,3.20
2019-04-13T21:01:32.119Z,3.10
2019-04-13T21:04:02.353Z,3.00
2019-04-13T21:06:32.495Z,2.80
2019-04-13T21:09:02.943Z,2.70
2019-04-13T21:11:32.047Z,2.60
2019-04-13T21:14:14.320Z,2.60
2019-04-13T21:16:39.206Z,2.50
2019-04-13T21:19:17.423Z,2.50
2019-04-13T21:21:45.551Z,2.50
2019-04-13T21:24:17.643Z,2.40
2019-04-13T21:26:50.070Z,2.40
2019-04-13T21:29:19.946Z,2.40
2019-04-13T21:31:52.060Z,2.40
2019-04-13T21:34:22.125Z,2.40
2019-04-13T21:37:03.186Z,2.40
2019-04-13T21:39:35.169Z,2.30
2019-04-13T21:42:06.559Z,2.30
2019-04-13T21:44:42.195Z,2.30
2019-04-13T21:47:12.010Z,2.30
2019-04-13T21:49:42.612Z,2.20
2019-04-13T21:52:21.994Z,2.10
2019-04-13T21:54:56.050Z,2.10
2019-04-13T21:57:26.247Z,2.00
2019-04-13T22:00:05.422Z,2.00
2019-04-13T22:02:37.411Z,1.90
2019-04-13T22:05:11.792Z,1.90
2019-04-13T22:07:43.886Z,1.90
2019-04-13T22:10:18.118Z,1.90
2019-04-13T22:12:48.224Z,1.80
2019-04-13T22:15:18.681Z,1.80
2019-04-13T22:17:58.128Z,1.80
2019-04-13T22:20:27.619Z,1.70
2019-04-13T22:22:57.541Z,1.60
2019-04-13T22:25:29.900Z,1.70
2019-04-13T22:28:10.213Z,1.80
2019-04-13T22:30:43.019Z,1.80
2019-04-13T22:33:17.835Z,1.80
2019-04-13T22:35:47.861Z,1.80
2019-04-13T22:38:22.078Z,1.80
2019-04-13T22:40:51.599Z,1.80
2019-04-13T22:43:21.686Z,1.80
2019-04-13T22:45:51.388Z,1.80
2019-04-13T22:48:24.678Z,1.80
2019-04-13T22:51:07.677Z,1.80
2019-04-13T22:53:44.097Z,1.80
2019-04-13T22:56:18.066Z,1.70
2019-04-13T22:58:49.670Z,1.70
2019-04-13T23:01:22.385Z,1.70
2019-04-13T23:03:55.063Z,1.70
2019-04-13T23:06:27.050Z,1.70
2019-04-13T23:09:01.812Z,1.70
2019-04-13T23:11:34.836Z,1.70
2019-04-13T23:14:06.890Z,1.70
2019-04-13T23:16:47.764Z,1.80
2019-04-13T23:19:17.561Z,1.80
2019-04-13T23:21:46.579Z,1.80
2019-04-13T23:24:17.664Z,1.70
2019-04-13T23:26:49.500Z,1.70
2019-04-13T23:29:21.408Z,1.60
2019-04-13T23:31:54.374Z,1.60
2019-04-13T23:34:24.624Z,1.50
2019-04-13T23:36:53.632Z,1.60
2019-04-13T23:39:22.026Z,1.60
2019-04-13T23:41:50.417Z,1.70
2019-04-13T23:44:20.450Z,1.70
2019-04-13T23:46:50.308Z,1.70
2019-04-13T23:49:21.027Z,1.60
2019-04-13T23:51:49.455Z,1.70
2019-04-13T23:54:23.997Z,1.70
2019-04-13T23:57:00.795Z,1.70
2019-04-13T23:59:34.999Z,1.70
